createdAt,value
2023-03-16T00:02:27.729Z,11.38
2023-03-16T00:04:56.041Z,9.80
2023-03-16T00:07:24.664Z,14.45
2023-03-16T00:09:54.549Z,12.52
2023-03-16T00:12:25.409Z,11.75
2023-03-16T00:14:54.102Z,14.18
2023-03-16T00:17:22.697Z,14.57
2023-03-16T00:19:54.670Z,14.23
2023-03-16T00:22:23.314Z,14.85
2023-03-16T00:24:52.590Z,11.15
2023-03-16T00:27:22.592Z,13.52
2023-03-16T00:29:56.044Z,12.52
2023-03-16T00:32:25.443Z,12.13
2023-03-16T00:34:53.844Z,13.38
2023-03-16T00:37:23.288Z,11.02
2023-03-16T00:39:52.939Z,15.25
2023-03-16T00:42:23.515Z,15.38
2023-03-16T00:44:57.039Z,13.13
2023-03-16T00:47:28.308Z,13.73
2023-03-16T00:49:56.631Z,15.75
2023-03-16T00:52:27.174Z,14.55
2023-03-16T00:54:55.995Z,13.93
2023-03-16T00:57:25.620Z,13.00
2023-03-16T00:59:53.988Z,14.30
2023-03-16T01:02:24.454Z,13.70
2023-03-16T01:04:55.252Z,14.18
2023-03-16T01:07:23.780Z,13.70
2023-03-16T01:09:52.476Z,16.27
2023-03-16T01:12:21.283Z,13.95
2023-03-16T01:14:49.592Z,12.18
2023-03-16T01:17:18.532Z,12.10
2023-03-16T01:19:47.311Z,11.45
2023-03-16T01:22:17.471Z,18.17
2023-03-16T01:24:46.672Z,13.80
2023-03-16T01:27:15.554Z,13.63
2023-03-16T01:29:44.591Z,12.52
2023-03-16T01:32:13.622Z,14.10
2023-03-16T01:34:42.559Z,13.38
2023-03-16T01:37:13.326Z,14.00
2023-03-16T01:39:58.241Z,15.35
2023-03-16T01:42:26.652Z,13.00
2023-03-16T01:44:56.443Z,15.20
2023-03-16T01:47:37.852Z,15.93
2023-03-16T01:50:08.286Z,15.52
2023-03-16T01:52:40.003Z,13.40
2023-03-16T01:55:13.078Z,14.27
2023-03-16T01:57:42.862Z,14.25
2023-03-16T02:00:18.550Z,16.40
2023-03-16T02:02:59.665Z,16.30
2023-03-16T02:05:42.170Z,15.25
2023-03-16T02:08:12.297Z,14.10
2023-03-16T02:10:42.626Z,14.32
2023-03-16T02:13:11.106Z,14.77
2023-03-16T02:15:39.622Z,16.05
2023-03-16T02:18:09.260Z,15.48
2023-03-16T02:20:42.929Z,13.05
2023-03-16T02:23:18.287Z,13.82
2023-03-16T02:25:55.042Z,13.27
2023-03-16T02:28:27.386Z,14.43
2023-03-16T02:30:57.194Z,16.92
2023-03-16T02:33:26.372Z,13.27
2023-03-16T02:35:54.703Z,15.40
2023-03-16T02:38:23.350Z,15.63
2023-03-16T02:40:59.289Z,15.20
2023-03-16T02:43:29.855Z,14.30
2023-03-16T02:46:23.512Z,13.40
2023-03-16T02:48:56.640Z,15.93
2023-03-16T02:51:24.999Z,17.55
2023-03-16T02:53:53.464Z,14.27
2023-03-16T02:56:22.356Z,16.58
2023-03-16T02:58:51.917Z,15.10
2023-03-16T03:01:23.284Z,13.65
2023-03-16T03:03:51.801Z,18.02
2023-03-16T03:06:20.097Z,17.13
2023-03-16T03:08:48.679Z,14.68
2023-03-16T03:11:18.865Z,16.08
2023-03-16T03:13:47.259Z,14.45
2023-03-16T03:16:20.286Z,14.48
2023-03-16T03:18:52.586Z,17.48
2023-03-16T03:21:21.035Z,17.85
2023-03-16T03:23:49.489Z,16.33
2023-03-16T03:26:18.362Z,14.70
2023-03-16T03:28:47.576Z,14.70
2023-03-16T03:31:17.411Z,15.18
2023-03-16T03:33:45.815Z,14.07
2023-03-16T03:36:15.908Z,17.55
2023-03-16T03:38:46.109Z,14.80
2023-03-16T03:41:14.766Z,15.52
2023-03-16T03:43:43.439Z,21.27
2023-03-16T03:46:17.018Z,12.77
2023-03-16T03:48:45.457Z,16.50
2023-03-16T03:51:13.989Z,14.18
2023-03-16T03:53:59.405Z,13.38
2023-03-16T03:56:42.725Z,15.80
2023-03-16T03:59:15.005Z,12.70
2023-03-16T04:02:02.234Z,13.52
2023-03-16T04:04:40.981Z,11.70
2023-03-16T04:07:11.675Z,13.85
2023-03-16T04:09:42.724Z,12.48
2023-03-16T04:12:18.825Z,16.00
2023-03-16T04:14:47.839Z,14.68
2023-03-16T04:17:17.982Z,14.48
2023-03-16T04:19:47.989Z,16.02
2023-03-16T04:22:18.195Z,12.35
2023-03-16T04:24:49.439Z,16.30
2023-03-16T04:27:18.387Z,11.70
2023-03-16T04:29:47.873Z,16.35
2023-03-16T04:32:16.209Z,15.85
2023-03-16T04:34:47.108Z,12.48
2023-03-16T04:37:16.519Z,17.20
2023-03-16T04:39:45.302Z,14.60
2023-03-16T04:42:15.300Z,16.08
2023-03-16T04:44:45.022Z,13.80
2023-03-16T04:47:16.053Z,14.10
2023-03-16T04:49:45.358Z,12.40
2023-03-16T04:52:14.181Z,13.57
2023-03-16T04:54:42.864Z,14.55
2023-03-16T04:57:14.425Z,14.52
2023-03-16T04:59:47.112Z,14.95
2023-03-16T05:02:25.681Z,11.52
2023-03-16T05:04:55.112Z,13.27
2023-03-16T05:07:24.175Z,15.35
2023-03-16T05:09:55.698Z,12.18
2023-03-16T05:12:25.393Z,13.68
2023-03-16T05:14:58.515Z,16.48
2023-03-16T05:17:38.322Z,13.90
2023-03-16T05:20:08.412Z,14.82
2023-03-16T05:22:42.099Z,15.48
2023-03-16T05:25:16.379Z,12.95
2023-03-16T05:27:50.305Z,14.80
2023-03-16T05:30:26.740Z,12.38
2023-03-16T05:32:57.912Z,16.75
2023-03-16T05:35:27.959Z,14.40
2023-03-16T05:38:00.661Z,15.65
2023-03-16T05:40:30.474Z,17.88
2023-03-16T05:43:16.128Z,16.70
2023-03-16T05:45:50.226Z,15.80
2023-03-16T05:48:21.330Z,13.73
2023-03-16T05:50:55.123Z,14.68
2023-03-16T05:53:29.919Z,15.20
2023-03-16T05:56:05.934Z,16.67
2023-03-16T05:58:37.847Z,13.57
2023-03-16T06:01:09.585Z,15.65
2023-03-16T06:03:38.081Z,19.63
2023-03-16T06:06:09.195Z,18.75
2023-03-16T06:08:48.883Z,16.35
2023-03-16T06:11:18.546Z,15.25
2023-03-16T06:13:48.857Z,16.52
2023-03-16T06:16:17.944Z,16.92
2023-03-16T06:18:46.991Z,15.98
2023-03-16T06:21:15.487Z,15.98
2023-03-16T06:23:44.176Z,17.52
2023-03-16T06:26:13.224Z,17.33
2023-03-16T06:28:44.076Z,18.02
2023-03-16T06:31:13.971Z,16.95
2023-03-16T06:33:47.267Z,19.73
2023-03-16T06:36:15.813Z,16.73
2023-03-16T06:38:48.641Z,15.20
2023-03-16T06:41:24.929Z,16.45
2023-03-16T06:43:54.145Z,19.02
2023-03-16T06:46:23.874Z,16.08
2023-03-16T06:48:52.399Z,14.43
2023-03-16T06:51:21.444Z,14.80
2023-03-16T06:53:53.175Z,15.90
2023-03-16T06:56:21.758Z,15.20
2023-03-16T06:58:51.840Z,17.65
2023-03-16T07:01:22.886Z,15.52
2023-03-16T07:04:02.810Z,15.75
2023-03-16T07:06:35.964Z,16.35
2023-03-16T07:09:05.005Z,15.70
2023-03-16T07:11:33.444Z,16.77
2023-03-16T07:14:02.526Z,16.45
2023-03-16T07:16:33.135Z,19.58
2023-03-16T07:19:05.884Z,16.67
2023-03-16T07:21:39.909Z,16.98
2023-03-16T07:24:12.819Z,15.65
2023-03-16T07:26:43.089Z,16.17
2023-03-16T07:29:12.440Z,12.80
2023-03-16T07:31:41.726Z,15.40
2023-03-16T07:34:18.253Z,15.73
2023-03-16T07:36:52.631Z,15.88
2023-03-16T07:39:22.140Z,14.63
2023-03-16T07:41:52.354Z,14.32
2023-03-16T07:44:32.807Z,13.95
2023-03-16T07:47:01.512Z,11.50
2023-03-16T07:49:32.981Z,16.30
2023-03-16T07:52:03.346Z,14.52
2023-03-16T07:54:38.956Z,13.25
2023-03-16T07:57:08.925Z,13.25
2023-03-16T07:59:41.550Z,12.35
2023-03-16T08:02:14.165Z,12.88
2023-03-16T08:04:45.008Z,12.38
2023-03-16T08:07:16.669Z,15.07
2023-03-16T08:09:54.958Z,13.88
2023-03-16T08:12:29.683Z,11.27
2023-03-16T08:14:58.456Z,13.07
2023-03-16T08:17:29.916Z,11.23
2023-03-16T08:20:01.128Z,23.90
2023-03-16T08:22:30.983Z,10.52
2023-03-16T08:24:59.394Z,10.60
2023-03-16T08:27:29.560Z,10.20
2023-03-16T08:30:05.532Z,12.23
2023-03-16T08:32:37.555Z,11.05
2023-03-16T08:35:08.209Z,10.50
2023-03-16T08:37:37.275Z,9.25
2023-03-16T08:40:10.240Z,12.93
2023-03-16T08:42:39.772Z,9.23
2023-03-16T08:45:12.323Z,8.50
2023-03-16T08:47:43.230Z,10.13
2023-03-16T08:50:16.526Z,11.93
2023-03-16T08:52:44.965Z,9.93
2023-03-16T08:55:13.400Z,9.38
2023-03-16T08:57:41.872Z,10.98
2023-03-16T09:00:14.150Z,9.95
2023-03-16T09:02:45.742Z,10.13
2023-03-16T09:05:18.957Z,10.55
2023-03-16T09:07:49.103Z,9.40
2023-03-16T09:10:26.046Z,8.98
2023-03-16T09:12:55.063Z,9.63
2023-03-16T09:15:23.455Z,9.40
2023-03-16T09:17:52.202Z,10.93
2023-03-16T09:20:35.051Z,8.65
2023-03-16T09:23:04.345Z,9.02
2023-03-16T09:25:33.626Z,8.45
2023-03-16T09:28:02.512Z,9.80
2023-03-16T09:30:31.453Z,8.02
2023-03-16T09:33:00.403Z,7.50
2023-03-16T09:35:30.803Z,6.82
2023-03-16T09:38:07.155Z,7.85
2023-03-16T09:40:36.761Z,8.73
2023-03-16T09:43:17.631Z,8.55
2023-03-16T09:45:48.001Z,9.07
2023-03-16T09:48:18.489Z,8.85
2023-03-16T09:50:49.744Z,9.00
2023-03-16T09:53:23.252Z,9.02
2023-03-16T09:56:10.473Z,17.90
2023-03-16T09:59:33.793Z,8.57
2023-03-16T10:02:22.215Z,10.20
2023-03-16T10:05:11.833Z,7.82
2023-03-16T10:07:49.111Z,9.63
2023-03-16T10:13:49.372Z,10.57
2023-03-16T10:16:20.334Z,8.27
2023-03-16T10:18:56.128Z,8.73
2023-03-16T10:21:30.757Z,8.70
2023-03-16T10:24:04.163Z,10.18
2023-03-16T10:26:35.306Z,10.30
2023-03-16T10:29:04.164Z,7.82
2023-03-16T10:31:32.591Z,7.85
2023-03-16T10:34:06.470Z,10.05
2023-03-16T10:36:36.034Z,7.53
2023-03-16T10:39:07.405Z,7.43
2023-03-16T10:41:37.152Z,9.43
2023-03-16T10:44:11.984Z,7.95
2023-03-16T10:46:41.423Z,8.95
2023-03-16T10:49:21.492Z,8.25
2023-03-16T10:51:50.139Z,7.78
2023-03-16T10:54:24.761Z,8.57
2023-03-16T10:56:53.310Z,11.57
2023-03-16T10:59:29.416Z,8.23
2023-03-16T11:02:04.058Z,9.68
2023-03-16T11:04:41.023Z,8.85
2023-03-16T11:07:24.822Z,9.23
2023-03-16T11:09:56.199Z,8.38
2023-03-16T11:12:26.489Z,9.40
2023-03-16T11:14:56.101Z,9.73
2023-03-16T11:17:27.426Z,9.20
2023-03-16T11:19:56.681Z,11.65
2023-03-16T11:22:26.173Z,10.82
2023-03-16T11:24:59.225Z,8.93
2023-03-16T11:27:33.014Z,9.25
2023-03-16T11:30:05.609Z,10.50
2023-03-16T11:32:35.630Z,7.95
2023-03-16T11:35:08.008Z,7.25
2023-03-16T11:37:44.958Z,9.00
2023-03-16T11:40:22.220Z,9.88
2023-03-16T11:42:57.401Z,7.97
2023-03-16T11:57:46.912Z,9.38
2023-03-16T12:00:23.545Z,10.27
2023-03-16T12:03:03.981Z,10.05
2023-03-16T12:05:49.803Z,11.07
2023-03-16T12:08:29.803Z,9.27
2023-03-16T12:11:00.360Z,9.88
2023-03-16T12:13:37.634Z,8.77
2023-03-16T12:16:07.949Z,10.85
2023-03-16T12:18:40.439Z,8.73
2023-03-16T12:21:12.292Z,8.02
2023-03-16T12:23:42.316Z,9.88
2023-03-16T12:26:12.339Z,9.70
2023-03-16T12:28:43.832Z,9.57
2023-03-16T12:31:14.837Z,10.27
2023-03-16T12:34:01.845Z,8.82
2023-03-16T12:36:48.097Z,8.45
2023-03-16T12:39:19.464Z,9.77
2023-03-16T12:41:54.497Z,10.88
2023-03-16T12:44:27.931Z,9.70
2023-03-16T12:46:59.220Z,9.98
2023-03-16T12:49:29.346Z,7.57
2023-03-16T12:52:01.772Z,7.45
2023-03-16T12:54:30.365Z,6.75
2023-03-16T12:57:02.636Z,8.77
2023-03-16T12:59:40.012Z,11.32
2023-03-16T13:02:21.519Z,9.80
2023-03-16T13:04:52.004Z,8.98
2023-03-16T13:07:21.473Z,9.35
2023-03-16T13:09:55.974Z,9.27
2023-03-16T13:12:25.907Z,9.25
2023-03-16T13:14:56.889Z,8.95
2023-03-16T13:17:27.112Z,13.73
2023-03-16T13:20:08.954Z,14.18
2023-03-16T13:22:45.666Z,11.30
2023-03-16T13:25:22.460Z,8.90
2023-03-16T13:27:52.169Z,10.05
2023-03-16T13:30:24.366Z,11.43
2023-03-16T13:32:57.329Z,10.02
2023-03-16T13:35:27.845Z,10.38
2023-03-16T13:37:56.561Z,9.23
2023-03-16T13:40:27.471Z,10.85
2023-03-16T13:42:58.915Z,11.23
2023-03-16T13:45:33.687Z,8.90
2023-03-16T13:48:03.270Z,9.93
2023-03-16T13:50:33.805Z,10.45
2023-03-16T13:53:04.413Z,10.60
2023-03-16T13:55:34.667Z,9.68
2023-03-16T13:58:03.882Z,9.07
2023-03-16T14:00:35.937Z,9.52
2023-03-16T14:03:14.495Z,9.35
2023-03-16T14:05:46.041Z,9.57
2023-03-16T14:08:19.495Z,7.90
2023-03-16T14:10:48.467Z,8.73
2023-03-16T14:13:38.409Z,10.25
2023-03-16T14:16:13.971Z,8.23
2023-03-16T14:18:43.397Z,10.18
2023-03-16T14:21:16.374Z,8.23
2023-03-16T14:23:45.974Z,9.52
2023-03-16T14:26:15.964Z,7.35
2023-03-16T14:28:55.442Z,10.60
2023-03-16T14:31:32.650Z,9.75
2023-03-16T14:34:02.102Z,9.05
2023-03-16T14:36:36.531Z,8.38
2023-03-16T14:39:11.985Z,9.30
2023-03-16T14:41:40.477Z,7.82
2023-03-16T14:44:17.756Z,7.90
2023-03-16T14:46:47.544Z,9.32
2023-03-16T14:49:22.644Z,7.78
2023-03-16T14:51:52.661Z,9.27
2023-03-16T14:54:22.803Z,6.28
2023-03-16T14:56:52.264Z,8.55
2023-03-16T14:59:20.879Z,10.27
2023-03-16T15:01:58.541Z,9.55
2023-03-16T15:04:30.118Z,8.55
2023-03-16T15:07:03.143Z,10.82
2023-03-16T15:09:37.890Z,6.85
2023-03-16T15:12:06.819Z,7.63
2023-03-16T15:14:52.846Z,7.05
2023-03-16T15:17:22.952Z,7.93
2023-03-16T15:19:51.421Z,7.90
2023-03-16T15:22:23.126Z,7.80
2023-03-16T15:24:52.486Z,6.43
2023-03-16T15:27:22.128Z,8.02
2023-03-16T15:29:56.011Z,5.78
2023-03-16T15:32:26.275Z,6.97
2023-03-16T15:34:55.275Z,7.55
2023-03-16T15:37:27.418Z,6.53
2023-03-16T15:39:58.289Z,6.75
2023-03-16T15:42:27.245Z,6.05
2023-03-16T15:44:55.754Z,5.72
2023-03-16T15:47:26.614Z,8.70
2023-03-16T15:49:55.219Z,7.85
2023-03-16T15:52:28.000Z,7.43
2023-03-16T15:54:59.172Z,7.45
2023-03-16T15:57:27.822Z,8.10
2023-03-16T15:59:56.351Z,6.80
2023-03-16T16:02:28.695Z,5.20
2023-03-16T16:05:08.119Z,6.82
2023-03-16T16:07:37.968Z,6.88
2023-03-16T16:10:07.305Z,5.40
2023-03-16T16:12:35.630Z,7.68
2023-03-16T16:15:03.981Z,8.27
2023-03-16T16:17:50.731Z,6.53
2023-03-16T16:20:23.746Z,5.15
2023-03-16T16:22:52.829Z,4.93
2023-03-16T16:25:23.126Z,9.13
2023-03-16T16:27:51.732Z,5.38
2023-03-16T16:30:22.478Z,6.20
2023-03-16T16:32:57.512Z,5.47
2023-03-16T16:35:27.565Z,6.82
2023-03-16T16:37:56.964Z,6.22
2023-03-16T16:40:26.710Z,5.85
2023-03-16T16:42:55.768Z,3.97
2023-03-16T16:45:25.150Z,4.28
2023-03-16T16:47:56.928Z,6.82
2023-03-16T16:50:26.389Z,6.97
2023-03-16T16:52:55.478Z,6.60
2023-03-16T16:55:24.259Z,6.57
2023-03-16T16:57:54.362Z,5.03
2023-03-16T17:00:24.569Z,5.80
2023-03-16T17:03:01.294Z,5.53
2023-03-16T17:05:31.581Z,3.38
2023-03-16T17:08:04.054Z,7.25
2023-03-16T17:10:33.216Z,5.55
2023-03-16T17:13:04.874Z,4.63
2023-03-16T17:15:33.789Z,5.93
2023-03-16T17:18:04.974Z,4.43
2023-03-16T17:20:34.408Z,5.40
2023-03-16T17:23:03.242Z,6.63
2023-03-16T17:25:32.447Z,5.28
2023-03-16T17:28:03.693Z,7.07
2023-03-16T17:30:33.040Z,4.07
2023-03-16T17:33:07.120Z,4.40
2023-03-16T17:35:35.714Z,4.78
2023-03-16T17:38:05.076Z,5.10
2023-03-16T17:40:33.940Z,5.70
2023-03-16T17:43:02.311Z,5.85
2023-03-16T17:45:31.081Z,5.40
2023-03-16T17:47:59.709Z,6.10
2023-03-16T17:50:32.256Z,6.93
2023-03-16T17:53:00.815Z,6.65
2023-03-16T17:55:29.328Z,5.03
2023-03-16T17:57:58.232Z,5.30
2023-03-16T18:00:30.839Z,5.32
2023-03-16T18:03:05.425Z,6.10
2023-03-16T18:05:36.149Z,4.55
2023-03-16T18:08:12.283Z,5.88
2023-03-16T18:10:40.838Z,6.18
2023-03-16T18:13:15.589Z,8.00
2023-03-16T18:15:44.334Z,5.90
2023-03-16T18:18:17.171Z,6.65
2023-03-16T18:20:46.932Z,6.25
2023-03-16T18:23:19.315Z,6.95
2023-03-16T18:25:48.484Z,5.55
2023-03-16T18:28:17.226Z,8.95
2023-03-16T18:30:47.327Z,21.05
2023-03-16T18:33:24.851Z,11.70
2023-03-16T18:35:56.006Z,9.52
2023-03-16T18:38:28.896Z,6.47
2023-03-16T18:40:57.296Z,9.73
2023-03-16T18:43:27.304Z,7.38
2023-03-16T18:45:56.739Z,8.23
2023-03-16T18:48:27.649Z,6.82
2023-03-16T18:50:57.491Z,5.90
2023-03-16T18:53:26.069Z,8.07
2023-03-16T18:55:57.225Z,8.85
2023-03-16T18:58:29.012Z,7.65
2023-03-16T19:00:59.171Z,6.60
2023-03-16T19:03:28.476Z,9.30
2023-03-16T19:05:59.196Z,8.75
2023-03-16T19:08:28.456Z,8.93
2023-03-16T19:10:57.689Z,8.40
2023-03-16T19:13:26.983Z,7.35
2023-03-16T19:15:57.370Z,9.52
2023-03-16T19:18:26.960Z,7.30
2023-03-16T19:20:55.992Z,6.57
2023-03-16T19:23:26.896Z,6.82
2023-03-16T19:25:55.933Z,8.05
2023-03-16T19:28:27.949Z,7.65
2023-03-16T19:30:56.893Z,6.65
2023-03-16T19:33:26.627Z,8.68
2023-03-16T19:35:55.849Z,10.45
2023-03-16T19:38:26.659Z,5.93
2023-03-16T19:40:56.391Z,7.90
2023-03-16T19:43:25.161Z,5.38
2023-03-16T19:45:54.927Z,5.30
2023-03-16T19:48:25.985Z,6.68
2023-03-16T19:50:54.322Z,8.50
2023-03-16T19:53:23.519Z,7.57
2023-03-16T19:55:54.091Z,7.45
2023-03-16T19:58:24.913Z,8.15
2023-03-16T20:00:53.312Z,6.60
2023-03-16T20:03:22.338Z,7.40
2023-03-16T20:05:50.647Z,6.93
2023-03-16T20:08:21.172Z,8.93
2023-03-16T20:10:49.876Z,6.32
2023-03-16T20:13:19.995Z,7.63
2023-03-16T20:15:48.395Z,8.23
2023-03-16T20:18:18.910Z,7.20
2023-03-16T20:20:47.780Z,7.55
2023-03-16T20:23:18.561Z,6.28
2023-03-16T20:25:47.698Z,7.65
2023-03-16T20:28:18.485Z,7.10
2023-03-16T20:30:48.787Z,11.40
2023-03-16T20:33:18.472Z,5.90
2023-03-16T20:35:47.463Z,7.80
2023-03-16T20:38:16.322Z,7.72
2023-03-16T20:40:45.625Z,6.72
2023-03-16T20:43:22.860Z,7.85
2023-03-16T20:45:54.325Z,7.70
2023-03-16T20:48:25.232Z,8.30
2023-03-16T20:50:54.437Z,7.55
2023-03-16T20:53:22.781Z,11.25
2023-03-16T20:55:51.398Z,7.88
2023-03-16T20:58:21.328Z,8.75
2023-03-16T21:00:51.549Z,6.78
2023-03-16T21:03:23.765Z,7.97
2023-03-16T21:05:52.784Z,8.07
2023-03-16T21:08:21.402Z,9.15
2023-03-16T21:10:51.126Z,8.48
2023-03-16T21:13:21.248Z,10.07
2023-03-16T21:15:50.931Z,8.85
2023-03-16T21:18:20.789Z,8.05
2023-03-16T21:20:51.606Z,8.27
2023-03-16T21:23:21.107Z,9.32
2023-03-16T21:25:50.892Z,7.57
2023-03-16T21:28:20.453Z,9.10
2023-03-16T21:30:50.146Z,10.20
2023-03-16T21:33:20.686Z,8.63
2023-03-16T21:35:50.540Z,9.68
2023-03-16T21:38:19.958Z,11.68
2023-03-16T21:40:49.186Z,8.23
2023-03-16T21:43:17.654Z,10.55
2023-03-16T21:45:46.666Z,10.98
2023-03-16T21:48:16.996Z,9.80
2023-03-16T21:50:45.474Z,8.88
2023-03-16T21:53:25.703Z,10.05
2023-03-16T21:55:54.812Z,8.65
2023-03-16T21:58:24.002Z,9.35
2023-03-16T22:00:53.826Z,8.27
2023-03-16T22:03:24.953Z,9.43
2023-03-16T22:05:54.028Z,9.23
2023-03-16T22:08:23.559Z,10.00
2023-03-16T22:10:53.895Z,8.98
2023-03-16T22:13:23.853Z,7.75
2023-03-16T22:15:53.866Z,10.18
2023-03-16T22:18:28.163Z,10.70
2023-03-16T22:20:56.661Z,10.77
2023-03-16T22:23:29.034Z,11.45
2023-03-16T22:25:58.724Z,10.07
2023-03-16T22:28:27.989Z,9.15
2023-03-16T22:30:57.892Z,8.48
2023-03-16T22:33:28.069Z,8.82
2023-03-16T22:35:58.321Z,8.93
2023-03-16T22:38:27.145Z,12.75
2023-03-16T22:40:55.631Z,12.15
2023-03-16T22:43:30.081Z,10.50
2023-03-16T22:45:59.024Z,7.93
2023-03-16T22:48:28.518Z,9.35
2023-03-16T22:50:58.597Z,9.75
2023-03-16T22:53:28.091Z,8.80
2023-03-16T22:55:57.572Z,9.60
2023-03-16T22:58:31.541Z,8.80
2023-03-16T23:01:00.432Z,8.57
2023-03-16T23:03:28.983Z,9.35
2023-03-16T23:05:57.365Z,10.25
2023-03-16T23:08:26.604Z,9.20
2023-03-16T23:10:55.220Z,11.27
2023-03-16T23:13:25.340Z,8.82
2023-03-16T23:15:56.828Z,11.15
2023-03-16T23:18:27.477Z,9.65
2023-03-16T23:20:56.037Z,11.63
2023-03-16T23:23:24.380Z,8.38
2023-03-16T23:25:52.743Z,9.55
2023-03-16T23:28:22.790Z,10.68
2023-03-16T23:30:51.308Z,9.30
2023-03-16T23:33:21.704Z,11.23
2023-03-16T23:35:50.152Z,9.90
2023-03-16T23:38:18.446Z,10.73
2023-03-16T23:40:49.338Z,9.50
2023-03-16T23:43:17.901Z,8.52
2023-03-16T23:45:47.570Z,9.25
2023-03-16T23:48:17.957Z,7.30
2023-03-16T23:50:49.372Z,9.65
2023-03-16T23:53:18.944Z,10.85
2023-03-16T23:55:47.925Z,11.07
2023-03-16T23:58:16.922Z,10.02
